createdAt,value
2017-05-19T00:00:20.256Z,930.77
2017-05-19T00:00:48.304Z,930.76
2017-05-19T00:01:16.374Z,930.74
2017-05-19T00:01:44.863Z,930.74
2017-05-19T00:02:13.133Z,930.71
2017-05-19T00:02:41.408Z,930.71
2017-05-19T00:03:09.696Z,930.7
2017-05-19T00:03:37.772Z,930.69
2017-05-19T00:04:06.002Z,930.7
2017-05-19T00:04:34.116Z,930.65
2017-05-19T00:05:02.341Z,930.63
2017-05-19T00:05:30.491Z,930.61
2017-05-19T00:05:58.650Z,930.57
2017-05-19T00:06:27.075Z,930.56
2017-05-19T00:06:55.315Z,930.52
2017-05-19T00:07:23.467Z,930.53
2017-05-19T00:07:51.688Z,930.5
2017-05-19T00:08:19.878Z,930.46
2017-05-19T00:08:48.147Z,930.48
2017-05-19T00:09:16.325Z,930.47
2017-05-19T00:09:44.598Z,930.43
2017-05-19T00:10:12.880Z,930.41
2017-05-19T00:10:41.091Z,930.4
2017-05-19T00:11:09.247Z,930.39
2017-05-19T00:11:37.565Z,930.34
2017-05-19T00:12:05.627Z,930.34
2017-05-19T00:12:33.923Z,930.33
2017-05-19T00:13:02.171Z,930.25
2017-05-19T00:13:30.276Z,930.24
2017-05-19T00:13:58.540Z,930.21
2017-05-19T00:14:26.811Z,930.18
2017-05-19T00:14:55.050Z,930.18
2017-05-19T00:15:23.206Z,930.18
2017-05-19T00:15:51.494Z,930.13
2017-05-19T00:16:19.727Z,930.14
2017-05-19T00:16:47.986Z,930.12
2017-05-19T00:17:16.240Z,930.12
2017-05-19T00:17:44.411Z,930.13
2017-05-19T00:18:12.719Z,930.18
2017-05-19T00:18:40.902Z,930.18
2017-05-19T00:19:09.166Z,930.22
2017-05-19T00:19:37.358Z,930.19
2017-05-19T00:20:05.427Z,930.2
2017-05-19T00:20:33.724Z,930.24
2017-05-19T00:21:01.771Z,930.26
2017-05-19T00:21:29.876Z,930.35
2017-05-19T00:21:58.201Z,930.26
2017-05-19T00:22:26.478Z,930.29
2017-05-19T00:22:54.711Z,930.3
2017-05-19T00:23:22.980Z,930.29
2017-05-19T00:23:51.062Z,930.26
2017-05-19T00:24:19.204Z,930.27
2017-05-19T00:24:47.367Z,930.28
2017-05-19T00:25:15.610Z,930.23
2017-05-19T00:25:43.804Z,930.21
2017-05-19T00:26:11.820Z,930.21
2017-05-19T00:26:40.166Z,930.22
2017-05-19T00:27:08.332Z,930.22
2017-05-19T00:27:36.514Z,930.18
2017-05-19T00:28:04.699Z,930.15
2017-05-19T00:28:32.952Z,930.18
2017-05-19T00:29:01.167Z,930.15
2017-05-19T00:29:29.401Z,930.17
2017-05-19T00:29:57.677Z,930.12
2017-05-19T00:30:25.967Z,930.13
2017-05-19T00:30:54.257Z,930.15
2017-05-19T00:31:22.416Z,930.12
2017-05-19T00:31:51.068Z,930.13
2017-05-19T00:32:19.336Z,930.17
2017-05-19T00:32:47.512Z,930.15
2017-05-19T00:33:15.640Z,930.18
2017-05-19T00:33:43.881Z,930.22
2017-05-19T00:34:12.144Z,930.2
2017-05-19T00:34:40.333Z,930.19
2017-05-19T00:35:08.619Z,930.22
2017-05-19T00:35:36.851Z,930.18
2017-05-19T00:36:05.101Z,930.26
2017-05-19T00:36:33.391Z,930.22
2017-05-19T00:37:01.662Z,930.2
2017-05-19T00:37:29.937Z,930.22
2017-05-19T00:37:58.139Z,930.18
2017-05-19T00:38:26.325Z,930.18
2017-05-19T00:38:54.330Z,930.19
2017-05-19T00:39:22.494Z,930.1
2017-05-19T00:39:50.625Z,930.11
2017-05-19T00:40:18.909Z,930.07
2017-05-19T00:40:47.190Z,930.04
2017-05-19T00:41:15.401Z,930.02
2017-05-19T00:41:43.611Z,929.99
2017-05-19T00:42:11.960Z,929.98
2017-05-19T00:42:40.103Z,929.94
2017-05-19T00:43:08.258Z,929.94
2017-05-19T00:43:36.490Z,929.96
2017-05-19T00:44:04.674Z,929.93
2017-05-19T00:44:32.983Z,929.97
2017-05-19T00:45:01.248Z,930.02
2017-05-19T00:45:29.366Z,929.95
2017-05-19T00:45:57.653Z,930.04
2017-05-19T00:46:25.924Z,929.97
2017-05-19T00:46:54.168Z,929.98
2017-05-19T00:47:22.617Z,930
2017-05-19T00:47:50.764Z,929.96
2017-05-19T00:48:18.998Z,929.94
2017-05-19T00:48:47.164Z,929.92
2017-05-19T00:49:15.439Z,929.95
2017-05-19T00:49:43.730Z,929.96
2017-05-19T00:50:11.958Z,929.98
2017-05-19T00:50:40.119Z,929.98
2017-05-19T00:51:08.392Z,930
2017-05-19T00:51:36.636Z,929.99
2017-05-19T00:52:05.201Z,930.03
2017-05-19T00:52:33.420Z,929.99
2017-05-19T00:53:01.665Z,930.05
2017-05-19T00:53:29.852Z,930.02
2017-05-19T00:53:58.111Z,930
2017-05-19T00:54:26.184Z,930
2017-05-19T00:54:54.247Z,930.02
2017-05-19T00:55:22.533Z,930.01
2017-05-19T00:55:50.709Z,930
2017-05-19T00:56:18.792Z,929.97
2017-05-19T00:56:47.058Z,930.01
2017-05-19T00:57:15.572Z,930.02
2017-05-19T00:57:43.655Z,930.03
2017-05-19T00:58:11.819Z,930.04
2017-05-19T00:58:40.030Z,930.06
2017-05-19T00:59:08.275Z,930.08
2017-05-19T00:59:36.409Z,930.12
2017-05-19T01:00:04.698Z,930.1
2017-05-19T01:00:32.972Z,930.09
2017-05-19T01:01:01.232Z,930.14
2017-05-19T01:01:29.359Z,930.12
2017-05-19T01:01:57.574Z,930.13
2017-05-19T01:02:26.151Z,930.14
2017-05-19T01:02:54.432Z,930.16
2017-05-19T01:03:22.573Z,930.13
2017-05-19T01:03:50.639Z,930.17
2017-05-19T01:04:18.861Z,930.23
2017-05-19T01:04:47.026Z,930.14
2017-05-19T01:05:15.257Z,930.15
2017-05-19T01:05:43.495Z,930.2
2017-05-19T01:06:11.465Z,930.17
2017-05-19T01:06:39.707Z,930.16
2017-05-19T01:07:07.918Z,930.18
2017-05-19T01:07:36.417Z,930.17
2017-05-19T01:08:04.611Z,930.13
2017-05-19T01:08:32.834Z,930.16
2017-05-19T01:09:01.103Z,930.08
2017-05-19T01:09:29.303Z,930.1
2017-05-19T01:09:57.544Z,930.09
2017-05-19T01:10:25.785Z,930.08
2017-05-19T01:10:54.087Z,930.12
2017-05-19T01:11:22.729Z,930.1
2017-05-19T01:11:50.982Z,930.06
2017-05-19T01:12:19.044Z,930.07
2017-05-19T01:12:47.323Z,930.09
2017-05-19T01:13:15.545Z,930.07
2017-05-19T01:13:43.693Z,930.12
2017-05-19T01:14:11.929Z,930.06
2017-05-19T01:14:40.105Z,930.11
2017-05-19T01:15:08.272Z,930.13
2017-05-19T01:15:36.358Z,930.06
2017-05-19T01:16:04.592Z,930.1
2017-05-19T01:16:32.883Z,930.1
2017-05-19T01:17:00.886Z,930.1
2017-05-19T01:17:29.302Z,930.08
2017-05-19T01:17:57.483Z,930.05
2017-05-19T01:18:25.675Z,930.07
2017-05-19T01:18:53.953Z,930.03
2017-05-19T01:19:22.016Z,930.06
2017-05-19T01:19:50.283Z,930.05
2017-05-19T01:20:18.440Z,930.03
2017-05-19T01:20:46.606Z,930.02
2017-05-19T01:21:14.882Z,930.02
2017-05-19T01:21:43.036Z,929.96
2017-05-19T01:22:11.308Z,929.99
2017-05-19T01:22:39.747Z,930.01
2017-05-19T01:23:08.016Z,929.98
2017-05-19T01:23:36.263Z,930
2017-05-19T01:24:04.574Z,930.03
2017-05-19T01:24:32.745Z,929.99
2017-05-19T01:25:01.021Z,930
2017-05-19T01:25:29.337Z,930
2017-05-19T01:25:57.484Z,929.97
2017-05-19T01:26:25.739Z,929.97
2017-05-19T01:26:53.933Z,929.96
2017-05-19T01:27:22.073Z,929.99
2017-05-19T01:27:50.434Z,929.98
2017-05-19T01:28:18.424Z,930.04
2017-05-19T01:28:46.910Z,930.05
2017-05-19T01:29:15.143Z,930.02
2017-05-19T01:29:43.258Z,930.04
2017-05-19T01:30:11.406Z,930.02
2017-05-19T01:30:39.518Z,930.06
2017-05-19T01:31:07.724Z,930.06
2017-05-19T01:31:36.130Z,930.1
2017-05-19T01:32:04.389Z,930.02
2017-05-19T01:32:32.676Z,930.05
2017-05-19T01:33:00.923Z,930.07
2017-05-19T01:33:29.211Z,930.12
2017-05-19T01:33:57.456Z,930.04
2017-05-19T01:34:25.740Z,930.06
2017-05-19T01:34:53.859Z,930.05
2017-05-19T01:35:22.075Z,930.02
2017-05-19T01:35:50.364Z,930.01
2017-05-19T01:36:18.456Z,929.99
2017-05-19T01:36:46.629Z,930.03
2017-05-19T01:37:14.943Z,930
2017-05-19T01:37:43.237Z,929.99
2017-05-19T01:38:11.644Z,929.94
2017-05-19T01:38:39.917Z,929.96
2017-05-19T01:39:08.116Z,929.96
2017-05-19T01:39:36.307Z,929.94
2017-05-19T01:40:04.478Z,929.92
2017-05-19T01:40:32.759Z,929.88
2017-05-19T01:41:00.904Z,929.94
2017-05-19T01:41:29.007Z,929.84
2017-05-19T01:41:57.172Z,929.89
2017-05-19T01:42:25.272Z,929.86
2017-05-19T01:42:53.729Z,929.9
2017-05-19T01:43:21.852Z,929.83
2017-05-19T01:43:50.019Z,929.76
2017-05-19T01:44:18.302Z,929.79
2017-05-19T01:44:46.593Z,929.86
2017-05-19T01:45:14.643Z,929.88
2017-05-19T01:45:42.937Z,929.88
2017-05-19T01:46:11.198Z,929.88
2017-05-19T01:46:39.495Z,929.88
2017-05-19T01:47:07.661Z,929.87
2017-05-19T01:47:35.947Z,929.86
2017-05-19T01:48:04.395Z,929.88
2017-05-19T01:48:32.595Z,929.91
2017-05-19T01:49:00.901Z,929.91
2017-05-19T01:49:29.123Z,929.96
2017-05-19T01:49:57.247Z,929.9
2017-05-19T01:50:25.467Z,929.92
2017-05-19T01:50:53.727Z,929.87
2017-05-19T01:51:22.012Z,929.9
2017-05-19T01:51:50.298Z,929.94
2017-05-19T01:52:18.394Z,929.89
2017-05-19T01:52:46.724Z,929.89
2017-05-19T01:53:15.149Z,929.91
2017-05-19T01:53:43.404Z,929.9
2017-05-19T01:54:11.634Z,929.89
2017-05-19T01:54:39.896Z,929.9
2017-05-19T01:55:08.073Z,929.84
2017-05-19T01:55:36.346Z,929.86
2017-05-19T01:56:04.584Z,929.85
2017-05-19T01:56:32.859Z,929.86
2017-05-19T01:57:00.949Z,929.85
2017-05-19T01:57:29.212Z,929.81
2017-05-19T01:57:57.577Z,929.81
2017-05-19T01:58:25.811Z,929.83
2017-05-19T01:58:53.993Z,929.82
2017-05-19T01:59:22.343Z,929.79
2017-05-19T01:59:50.624Z,929.78
2017-05-19T02:00:18.862Z,929.8
2017-05-19T02:00:46.952Z,929.83
2017-05-19T02:01:15.080Z,929.76
2017-05-19T02:01:43.349Z,929.78
2017-05-19T02:02:11.662Z,929.77
2017-05-19T02:02:39.916Z,929.74
2017-05-19T02:03:08.202Z,929.8
2017-05-19T02:03:36.778Z,929.81
2017-05-19T02:04:04.940Z,929.77
2017-05-19T02:04:33.151Z,929.75
2017-05-19T02:05:01.443Z,929.75
2017-05-19T02:05:29.780Z,929.74
2017-05-19T02:05:58.051Z,929.7
2017-05-19T02:06:26.297Z,929.75
2017-05-19T02:06:54.607Z,929.72
2017-05-19T02:07:22.846Z,929.69
2017-05-19T02:07:51.013Z,929.68
2017-05-19T02:08:19.357Z,929.65
2017-05-19T02:08:47.674Z,929.66
2017-05-19T02:09:15.958Z,929.65
2017-05-19T02:09:44.259Z,929.66
2017-05-19T02:10:12.445Z,929.7
2017-05-19T02:10:40.699Z,929.69
2017-05-19T02:11:08.871Z,929.74
2017-05-19T02:11:37.095Z,929.74
2017-05-19T02:12:05.344Z,929.75
2017-05-19T02:12:33.555Z,929.76
2017-05-19T02:13:01.911Z,929.74
2017-05-19T02:13:30.423Z,929.73
2017-05-19T02:13:58.626Z,929.7
2017-05-19T02:14:26.885Z,929.64
2017-05-19T02:14:55.138Z,929.67
2017-05-19T02:15:23.405Z,929.67
2017-05-19T02:15:51.694Z,929.63
2017-05-19T02:16:19.923Z,929.66
2017-05-19T02:16:48.249Z,929.67
2017-05-19T02:17:16.399Z,929.64
2017-05-19T02:17:44.670Z,929.63
2017-05-19T02:18:12.821Z,929.66
2017-05-19T02:18:41.022Z,929.66
2017-05-19T02:19:09.189Z,929.62
2017-05-19T02:19:37.329Z,929.61
2017-05-19T02:20:05.574Z,929.61
2017-05-19T02:20:33.728Z,929.58
2017-05-19T02:21:01.899Z,929.6
2017-05-19T02:21:30.050Z,929.62
2017-05-19T02:21:58.329Z,929.58
2017-05-19T02:22:26.545Z,929.66
2017-05-19T02:22:54.863Z,929.62
2017-05-19T02:23:23.294Z,929.63
2017-05-19T02:23:51.523Z,929.63
2017-05-19T02:24:19.734Z,929.64
2017-05-19T02:24:48.004Z,929.62
2017-05-19T02:25:16.238Z,929.66
2017-05-19T02:25:44.277Z,929.63
2017-05-19T02:26:12.554Z,929.67
2017-05-19T02:26:40.852Z,929.62
2017-05-19T02:27:09.134Z,929.71
2017-05-19T02:27:37.434Z,929.72
2017-05-19T02:28:05.602Z,929.65
2017-05-19T02:28:33.743Z,929.69
2017-05-19T02:29:02.004Z,929.74
2017-05-19T02:29:30.082Z,929.7
2017-05-19T02:29:58.164Z,929.73
2017-05-19T02:30:26.320Z,929.67
2017-05-19T02:30:54.323Z,929.65
2017-05-19T02:31:22.633Z,929.63
2017-05-19T02:31:50.749Z,929.58
2017-05-19T02:32:19.008Z,929.66
2017-05-19T02:32:47.308Z,929.59
2017-05-19T02:33:15.443Z,929.56
2017-05-19T02:33:43.830Z,929.55
2017-05-19T02:34:12.133Z,929.5
2017-05-19T02:34:40.495Z,929.57
2017-05-19T02:35:08.921Z,929.52
2017-05-19T02:35:37.293Z,929.48
2017-05-19T02:36:05.641Z,929.48
2017-05-19T02:36:33.828Z,929.49
2017-05-19T02:37:02.067Z,929.5
2017-05-19T02:37:30.223Z,929.41
2017-05-19T02:37:58.536Z,929.47
2017-05-19T02:38:26.589Z,929.42
2017-05-19T02:38:55.057Z,929.46
2017-05-19T02:39:23.293Z,929.38
2017-05-19T02:39:51.280Z,929.48
2017-05-19T02:40:19.449Z,929.35
2017-05-19T02:40:47.719Z,929.36
2017-05-19T02:41:15.774Z,929.33
2017-05-19T02:41:43.991Z,929.35
2017-05-19T02:42:12.243Z,929.3
2017-05-19T02:42:40.516Z,929.3
2017-05-19T02:43:08.720Z,929.26
2017-05-19T02:43:37.015Z,929.25
2017-05-19T02:44:05.280Z,929.24
2017-05-19T02:44:33.420Z,929.22
2017-05-19T02:45:01.606Z,929.24
2017-05-19T02:45:29.664Z,929.22
2017-05-19T02:45:57.945Z,929.25
2017-05-19T02:46:26.029Z,929.19
2017-05-19T02:46:54.198Z,929.17
2017-05-19T02:47:22.358Z,929.21
2017-05-19T02:47:50.462Z,929.25
2017-05-19T02:48:18.698Z,929.19
2017-05-19T02:48:46.956Z,929.23
2017-05-19T02:49:15.321Z,929.2
2017-05-19T02:49:43.466Z,929.19
2017-05-19T02:50:11.736Z,929.15
2017-05-19T02:50:40.017Z,929.15
2017-05-19T02:51:08.161Z,929.07
2017-05-19T02:51:36.439Z,929.01
2017-05-19T02:52:04.629Z,928.99
2017-05-19T02:52:32.937Z,928.97
2017-05-19T02:53:01.201Z,928.92
2017-05-19T02:53:29.370Z,928.91
2017-05-19T02:53:57.641Z,928.86
2017-05-19T02:54:26.125Z,928.84
2017-05-19T02:54:54.390Z,928.83
2017-05-19T02:55:22.606Z,928.79
2017-05-19T02:55:50.851Z,928.82
2017-05-19T02:56:19.047Z,928.77
2017-05-19T02:56:47.359Z,928.77
2017-05-19T02:57:15.541Z,928.76
2017-05-19T02:57:43.787Z,928.77
2017-05-19T02:58:12.061Z,928.74
2017-05-19T02:58:40.314Z,928.8
2017-05-19T02:59:08.691Z,928.79
2017-05-19T02:59:36.954Z,928.79
2017-05-19T03:00:05.191Z,928.81
2017-05-19T03:00:33.436Z,928.85
2017-05-19T03:01:01.742Z,928.8
2017-05-19T03:01:30.114Z,928.82
2017-05-19T03:01:58.342Z,928.84
2017-05-19T03:02:26.690Z,928.8
2017-05-19T03:02:54.970Z,928.75
2017-05-19T03:03:23.300Z,928.76
2017-05-19T03:03:51.397Z,928.71
2017-05-19T03:04:19.805Z,928.67
2017-05-19T03:04:47.999Z,928.7
2017-05-19T03:05:16.271Z,928.69
2017-05-19T03:05:44.618Z,928.64
2017-05-19T03:06:12.838Z,928.68
2017-05-19T03:06:41.165Z,928.69
2017-05-19T03:07:09.374Z,928.62
2017-05-19T03:07:37.662Z,928.64
2017-05-19T03:08:05.816Z,928.62
2017-05-19T03:08:34.039Z,928.64
2017-05-19T03:09:02.196Z,928.66
2017-05-19T03:09:30.546Z,928.62
2017-05-19T03:09:58.789Z,928.61
2017-05-19T03:10:26.982Z,928.64
2017-05-19T03:10:55.026Z,928.61
2017-05-19T03:11:23.157Z,928.58
2017-05-19T03:11:51.486Z,928.64
2017-05-19T03:12:19.694Z,928.63
2017-05-19T03:12:47.978Z,928.64
2017-05-19T03:13:16.271Z,928.67
2017-05-19T03:13:44.304Z,928.61
2017-05-19T03:14:12.568Z,928.64
2017-05-19T03:14:40.914Z,928.61
2017-05-19T03:15:09.154Z,928.64
2017-05-19T03:15:37.327Z,928.6
2017-05-19T03:16:05.534Z,928.52
2017-05-19T03:16:33.743Z,928.58
2017-05-19T03:17:02.020Z,928.56
2017-05-19T03:17:30.143Z,928.58
2017-05-19T03:17:58.418Z,928.54
2017-05-19T03:18:26.552Z,928.56
2017-05-19T03:18:54.828Z,928.49
2017-05-19T03:19:23.016Z,928.54
2017-05-19T03:19:51.290Z,928.51
2017-05-19T03:20:19.585Z,928.52
2017-05-19T03:20:47.901Z,928.57
2017-05-19T03:21:16.105Z,928.54
2017-05-19T03:21:44.257Z,928.56
2017-05-19T03:22:12.525Z,928.56
2017-05-19T03:22:40.674Z,928.56
2017-05-19T03:23:08.926Z,928.56
2017-05-19T03:23:37.128Z,928.54
2017-05-19T03:24:05.493Z,928.52
2017-05-19T03:24:34.066Z,928.52
2017-05-19T03:25:02.317Z,928.46
2017-05-19T03:25:30.646Z,928.46
2017-05-19T03:25:59.021Z,928.4
2017-05-19T03:26:27.256Z,928.33
2017-05-19T03:26:55.397Z,928.33
2017-05-19T03:27:23.709Z,928.31
2017-05-19T03:27:51.991Z,928.27
2017-05-19T03:28:20.434Z,928.24
2017-05-19T03:28:48.768Z,928.26
2017-05-19T03:29:17.170Z,928.23
2017-05-19T03:29:45.410Z,928.14
2017-05-19T03:30:13.449Z,928.16
2017-05-19T03:30:41.770Z,928.13
2017-05-19T03:31:10.041Z,928.2
2017-05-19T03:31:38.233Z,928.11
2017-05-19T03:32:06.452Z,928.15
2017-05-19T03:32:34.638Z,928.18
2017-05-19T03:33:02.858Z,928.17
2017-05-19T03:33:31.158Z,928.15
2017-05-19T03:33:59.346Z,928.21
2017-05-19T03:34:27.657Z,928.19
2017-05-19T03:34:55.927Z,928.19
2017-05-19T03:35:24.179Z,928.2
2017-05-19T03:35:52.271Z,928.19
2017-05-19T03:36:20.472Z,928.19
2017-05-19T03:36:48.666Z,928.16
2017-05-19T03:37:16.728Z,928.17
2017-05-19T03:37:44.958Z,928.14
2017-05-19T03:38:13.132Z,928.12
2017-05-19T03:38:41.379Z,928.15
2017-05-19T03:39:09.468Z,928.11
2017-05-19T03:39:37.595Z,928.12
2017-05-19T03:40:05.852Z,928.15
2017-05-19T03:40:33.899Z,928.14
2017-05-19T03:41:02.183Z,928.12
2017-05-19T03:41:30.444Z,928.13
2017-05-19T03:41:58.718Z,928.09
2017-05-19T03:42:26.993Z,928.12
2017-05-19T03:42:55.155Z,928.08
2017-05-19T03:43:23.476Z,928.1
2017-05-19T03:43:51.603Z,928.05
2017-05-19T03:44:19.750Z,928.06
2017-05-19T03:44:48.003Z,928.08
2017-05-19T03:45:16.140Z,928.08
2017-05-19T03:45:44.291Z,928.06
2017-05-19T03:46:12.563Z,928.02
2017-05-19T03:46:40.768Z,928.05
2017-05-19T03:47:09.003Z,928.02
2017-05-19T03:47:37.304Z,928.01
2017-05-19T03:48:05.383Z,928.06
2017-05-19T03:48:33.743Z,928.04
2017-05-19T03:49:02.021Z,928.04
2017-05-19T03:49:30.110Z,928.03
2017-05-19T03:49:58.511Z,928.01
2017-05-19T03:50:26.598Z,928
2017-05-19T03:50:54.943Z,927.99
2017-05-19T03:51:23.228Z,927.99
2017-05-19T03:51:51.447Z,927.97
2017-05-19T03:52:19.808Z,927.91
2017-05-19T03:52:48.059Z,927.89
2017-05-19T03:53:16.320Z,927.84
2017-05-19T03:53:44.740Z,927.84
2017-05-19T03:54:12.894Z,927.85
2017-05-19T03:54:41.164Z,927.79
2017-05-19T03:55:09.709Z,927.8
2017-05-19T03:55:38.050Z,927.8
2017-05-19T03:56:06.374Z,927.75
2017-05-19T03:56:34.648Z,927.72
2017-05-19T03:57:02.908Z,927.73
2017-05-19T03:57:31.169Z,927.71
2017-05-19T03:57:59.532Z,927.72
2017-05-19T03:58:27.790Z,927.66
2017-05-19T03:58:56.132Z,927.72
2017-05-19T03:59:24.441Z,927.72
2017-05-19T03:59:52.813Z,927.66
2017-05-19T04:00:21.191Z,927.68
2017-05-19T04:00:49.289Z,927.68
2017-05-19T04:01:17.516Z,927.71
2017-05-19T04:01:45.736Z,927.75
2017-05-19T04:02:14.006Z,927.78
2017-05-19T04:02:42.294Z,927.75
2017-05-19T04:03:10.599Z,927.75
2017-05-19T04:03:38.947Z,927.8
2017-05-19T04:04:07.103Z,927.75
2017-05-19T04:04:35.381Z,927.72
2017-05-19T04:05:03.674Z,927.68
2017-05-19T04:05:32.046Z,927.63
2017-05-19T04:06:00.071Z,927.62
2017-05-19T04:06:28.625Z,927.59
2017-05-19T04:06:56.895Z,927.55
2017-05-19T04:07:25.178Z,927.59
2017-05-19T04:07:53.601Z,927.5
2017-05-19T04:08:21.803Z,927.53
2017-05-19T04:08:49.972Z,927.48
2017-05-19T04:09:18.303Z,927.49
2017-05-19T04:09:46.469Z,927.47
2017-05-19T04:10:14.789Z,927.46
2017-05-19T04:10:43.202Z,927.45
2017-05-19T04:11:11.502Z,927.43
2017-05-19T04:11:39.422Z,927.45
2017-05-19T04:12:07.716Z,927.43
2017-05-19T04:12:36.176Z,927.4
2017-05-19T04:13:04.384Z,927.42
2017-05-19T04:13:32.724Z,927.38
2017-05-19T04:14:01.068Z,927.32
2017-05-19T04:14:29.312Z,927.36
2017-05-19T04:14:57.570Z,927.36
2017-05-19T04:15:25.837Z,927.35
2017-05-19T04:15:54.111Z,927.32
2017-05-19T04:16:22.245Z,927.31
2017-05-19T04:16:50.391Z,927.34
2017-05-19T04:17:18.802Z,927.27
2017-05-19T04:17:47.088Z,927.29
2017-05-19T04:18:15.406Z,927.26
2017-05-19T04:18:43.742Z,927.27
2017-05-19T04:19:11.972Z,927.25
2017-05-19T04:19:40.040Z,927.27
2017-05-19T04:20:08.122Z,927.26
2017-05-19T04:20:36.746Z,927.23
2017-05-19T04:21:05.034Z,927.26
2017-05-19T04:21:33.434Z,927.3
2017-05-19T04:22:01.558Z,927.31
2017-05-19T04:22:29.728Z,927.33
2017-05-19T04:22:57.963Z,927.31
2017-05-19T04:23:26.241Z,927.33
2017-05-19T04:23:54.545Z,927.38
2017-05-19T04:24:22.929Z,927.38
2017-05-19T04:24:51.073Z,927.36
2017-05-19T04:25:19.299Z,927.4
2017-05-19T04:25:47.709Z,927.39
2017-05-19T04:26:15.992Z,927.36
2017-05-19T04:26:44.182Z,927.39
2017-05-19T04:27:12.518Z,927.39
2017-05-19T04:27:40.853Z,927.43
2017-05-19T04:28:09.037Z,927.36
2017-05-19T04:28:37.243Z,927.42
2017-05-19T04:29:05.435Z,927.4
2017-05-19T04:29:33.474Z,927.4
2017-05-19T04:30:01.759Z,927.43
2017-05-19T04:30:30.061Z,927.46
2017-05-19T04:30:58.450Z,927.45
2017-05-19T04:31:26.694Z,927.45
2017-05-19T04:31:54.974Z,927.42
2017-05-19T04:32:23.170Z,927.45
2017-05-19T04:32:51.461Z,927.43
2017-05-19T04:33:19.709Z,927.4
2017-05-19T04:33:47.885Z,927.46
2017-05-19T04:34:16.128Z,927.44
2017-05-19T04:34:44.380Z,927.5
2017-05-19T04:35:12.564Z,927.51
2017-05-19T04:35:41.052Z,927.45
2017-05-19T04:36:09.292Z,927.5
2017-05-19T04:36:37.380Z,927.53
2017-05-19T04:37:05.693Z,927.53
2017-05-19T04:37:33.966Z,927.53
2017-05-19T04:38:02.210Z,927.5
2017-05-19T04:38:30.502Z,927.54
2017-05-19T04:38:58.836Z,927.53
2017-05-19T04:39:28.564Z,927.54
2017-05-19T04:39:56.834Z,927.51
2017-05-19T04:40:25.123Z,927.55
2017-05-19T04:40:53.549Z,927.58
2017-05-19T04:41:21.869Z,927.58
2017-05-19T04:41:49.937Z,927.58
2017-05-19T04:42:18.224Z,927.63
2017-05-19T04:42:46.515Z,927.59
2017-05-19T04:43:14.940Z,927.59
2017-05-19T04:43:42.978Z,927.61
2017-05-19T04:44:11.311Z,927.61
2017-05-19T04:44:39.712Z,927.62
2017-05-19T04:45:07.903Z,927.58
2017-05-19T04:45:36.012Z,927.62
2017-05-19T04:46:04.295Z,927.63
2017-05-19T04:46:32.695Z,927.64
2017-05-19T04:47:00.764Z,927.68
2017-05-19T04:47:29.165Z,927.64
2017-05-19T04:47:57.555Z,927.65
2017-05-19T04:48:25.722Z,927.64
2017-05-19T04:48:54.513Z,927.66
2017-05-19T04:49:22.598Z,927.71
2017-05-19T04:49:50.741Z,927.67
2017-05-19T04:50:19.044Z,927.67
2017-05-19T04:50:47.338Z,927.69
2017-05-19T04:51:15.626Z,927.68
2017-05-19T04:51:43.782Z,927.65
2017-05-19T04:52:12.086Z,927.67
2017-05-19T04:52:40.342Z,927.67
2017-05-19T04:53:08.466Z,927.65
2017-05-19T04:53:36.617Z,927.61
2017-05-19T04:54:04.920Z,927.63
2017-05-19T04:54:33.257Z,927.65
2017-05-19T04:55:01.789Z,927.59
2017-05-19T04:55:30.042Z,927.61
2017-05-19T04:55:58.352Z,927.6
2017-05-19T04:56:26.554Z,927.58
2017-05-19T04:56:54.834Z,927.55
2017-05-19T04:57:23.151Z,927.55
2017-05-19T04:57:51.407Z,927.56
2017-05-19T04:58:19.520Z,927.54
2017-05-19T04:58:47.871Z,927.54
2017-05-19T04:59:16.151Z,927.5
2017-05-19T04:59:44.404Z,927.52
2017-05-19T05:00:12.909Z,927.51
2017-05-19T05:00:41.242Z,927.44
2017-05-19T05:01:09.760Z,927.5
2017-05-19T05:01:38.099Z,927.51
2017-05-19T05:02:06.434Z,927.48
2017-05-19T05:02:34.685Z,927.45
2017-05-19T05:03:02.947Z,927.46
2017-05-19T05:03:31.192Z,927.47
2017-05-19T05:03:59.389Z,927.39
2017-05-19T05:04:27.554Z,927.43
2017-05-19T05:04:55.846Z,927.41
2017-05-19T05:05:23.910Z,927.42
2017-05-19T05:05:52.108Z,927.46
2017-05-19T05:06:20.840Z,927.46
2017-05-19T05:06:49.107Z,927.42
2017-05-19T05:07:17.369Z,927.36
2017-05-19T05:07:45.573Z,927.41
2017-05-19T05:08:13.861Z,927.41
2017-05-19T05:08:42.081Z,927.35
2017-05-19T05:09:10.210Z,927.38
2017-05-19T05:09:38.706Z,927.3
2017-05-19T05:10:06.996Z,927.38
2017-05-19T05:10:35.179Z,927.39
2017-05-19T05:11:03.359Z,927.36
2017-05-19T05:11:31.847Z,927.35
2017-05-19T05:12:00.133Z,927.38
2017-05-19T05:12:28.327Z,927.34
2017-05-19T05:12:56.833Z,927.38
2017-05-19T05:13:25.000Z,927.35
2017-05-19T05:13:53.268Z,927.3
2017-05-19T05:14:21.726Z,927.29
2017-05-19T05:14:50.125Z,927.27
2017-05-19T05:15:18.611Z,927.25
2017-05-19T05:15:47.138Z,927.14
2017-05-19T05:16:15.316Z,927.17
2017-05-19T05:16:43.880Z,927.13
2017-05-19T05:17:12.441Z,927.13
2017-05-19T05:17:40.701Z,927.08
2017-05-19T05:18:08.977Z,926.97
2017-05-19T05:18:37.329Z,927.02
2017-05-19T05:19:05.668Z,926.93
2017-05-19T05:19:34.003Z,926.93
2017-05-19T05:20:02.450Z,926.8
2017-05-19T05:20:30.902Z,926.87
2017-05-19T05:20:58.990Z,926.88
2017-05-19T05:21:27.537Z,926.86
2017-05-19T05:21:55.770Z,926.86
2017-05-19T05:22:23.985Z,926.89
2017-05-19T05:22:52.268Z,926.84
2017-05-19T05:23:20.534Z,926.73
2017-05-19T05:23:48.826Z,926.79
2017-05-19T05:24:17.072Z,926.81
2017-05-19T05:24:45.237Z,926.83
2017-05-19T05:25:13.321Z,926.78
2017-05-19T05:25:41.620Z,926.75
2017-05-19T05:26:09.883Z,926.73
2017-05-19T05:26:38.243Z,926.73
2017-05-19T05:27:06.491Z,926.74
2017-05-19T05:27:34.615Z,926.68
2017-05-19T05:28:02.827Z,926.7
2017-05-19T05:28:31.110Z,926.69
2017-05-19T05:28:59.391Z,926.7
2017-05-19T05:29:27.574Z,926.61
2017-05-19T05:29:55.747Z,926.64
2017-05-19T05:30:24.058Z,926.6
2017-05-19T05:30:52.217Z,926.59
2017-05-19T05:31:20.495Z,926.47
2017-05-19T05:31:49.049Z,926.61
2017-05-19T05:32:17.339Z,926.56
2017-05-19T05:32:45.639Z,926.63
2017-05-19T05:33:13.904Z,926.56
2017-05-19T05:33:42.143Z,926.63
2017-05-19T05:34:10.327Z,926.63
2017-05-19T05:34:38.586Z,926.68
2017-05-19T05:35:06.725Z,926.68
2017-05-19T05:35:35.023Z,926.69
2017-05-19T05:36:03.282Z,926.72
2017-05-19T05:36:31.432Z,926.72
2017-05-19T05:36:59.895Z,926.71
2017-05-19T05:37:28.069Z,926.71
2017-05-19T05:37:56.254Z,926.7
2017-05-19T05:38:24.483Z,926.76
2017-05-19T05:38:52.649Z,926.71
2017-05-19T05:39:20.911Z,926.7
2017-05-19T05:39:49.134Z,926.67
2017-05-19T05:40:17.406Z,926.72
2017-05-19T05:40:45.583Z,926.68
2017-05-19T05:41:13.743Z,926.73
2017-05-19T05:41:41.965Z,926.72
2017-05-19T05:42:10.354Z,926.67
2017-05-19T05:42:38.446Z,926.71
2017-05-19T05:43:06.698Z,926.65
2017-05-19T05:43:34.815Z,926.61
2017-05-19T05:44:02.966Z,926.58
2017-05-19T05:44:31.175Z,926.49
2017-05-19T05:44:59.355Z,926.52
2017-05-19T05:45:27.513Z,926.48
2017-05-19T05:45:55.548Z,926.45
2017-05-19T05:46:23.799Z,926.48
2017-05-19T05:46:52.242Z,926.49
2017-05-19T05:47:20.283Z,926.46
2017-05-19T05:47:48.527Z,926.54
2017-05-19T05:48:16.715Z,926.5
2017-05-19T05:48:45.013Z,926.5
2017-05-19T05:49:13.247Z,926.51
2017-05-19T05:49:41.413Z,926.52
2017-05-19T05:50:09.649Z,926.56
2017-05-19T05:50:37.780Z,926.55
2017-05-19T05:51:05.945Z,926.63
2017-05-19T05:51:33.985Z,926.62
2017-05-19T05:52:02.355Z,926.57
2017-05-19T05:52:30.515Z,926.62
2017-05-19T05:52:58.793Z,926.6
2017-05-19T05:53:27.055Z,926.63
2017-05-19T05:53:55.193Z,926.64